Time;durP1;ratioP1;P1;durP2;ratioP2;P2;SDS_P1;SDS_P2;PMS_P1;PMS_P2;Temp;Humidity;BMP_temperature;BMP_pressure;BME280_temperature;BME280_humidity;BME280_pressure;Samples;Min_cycle;Max_cycle;Signal;HPM_P1;HPM_P2
2022/05/27 00:01:44;;;;;;;2.40;2.20;;;;;;;;;;4953985;28;20545;-79
2022/05/27 00:04:10;;;;;;;2.40;2.13;;;;;;;;;;4952619;28;20573;-79
2022/05/27 00:06:37;;;;;;;2.43;2.13;;;;;;;;;;4955831;28;20485;-79
2022/05/27 00:09:03;;;;;;;3.00;2.20;;;;;;;;;;4951561;28;20451;-79
2022/05/27 00:11:31;;;;;;;2.17;1.97;;;;;;;;;;4971953;28;20443;-79
2022/05/27 00:13:59;;;;;;;2.27;2.07;;;;;;;;;;4973140;28;20497;-79
2022/05/27 00:16:27;;;;;;;2.30;2.10;;;;;;;;;;4973142;28;20461;-79
2022/05/27 00:18:53;;;;;;;2.33;2.13;;;;;;;;;;4972423;28;20463;-79
2022/05/27 00:21:20;;;;;;;2.20;2.00;;;;;;;;;;4971005;28;20555;-79
2022/05/27 00:23:47;;;;;;;2.83;2.07;;;;;;;;;;4974592;28;20581;-79
2022/05/27 00:26:13;;;;;;;2.70;2.20;;;;;;;;;;4955352;28;20442;-79
2022/05/27 00:28:43;;;;;;;3.53;2.37;;;;;;;;;;4971913;28;20991;-79
2022/05/27 00:31:10;;;;;;;2.40;1.80;;;;;;;;;;4953573;28;20525;-79
2022/05/27 00:33:38;;;;;;;1.93;1.80;;;;;;;;;;4972538;28;20607;-79
2022/05/27 00:36:06;;;;;;;2.60;2.03;;;;;;;;;;4959906;28;20434;-79
2022/05/27 00:38:33;;;;;;;2.10;1.87;;;;;;;;;;4985982;28;20518;-79
2022/05/27 00:40:59;;;;;;;2.27;1.70;;;;;;;;;;4971159;28;20509;-79
2022/05/27 00:43:26;;;;;;;2.27;2.07;;;;;;;;;;4942461;28;20493;-79
2022/05/27 00:45:59;;;;;;;3.10;2.30;;;;;;;;;;4972004;28;20442;-79
2022/05/27 00:48:26;;;;;;;3.00;2.20;;;;;;;;;;4972016;28;20553;-79
2022/05/27 00:50:53;;;;;;;2.47;2.27;;;;;;;;;;4952479;28;20495;-79
2022/05/27 00:53:23;;;;;;;3.03;2.43;;;;;;;;;;4962660;28;20872;-79
2022/05/27 00:55:51;;;;;;;2.20;2.00;;;;;;;;;;4972374;28;20485;-79
2022/05/27 00:58:25;;;;;;;2.47;2.10;;;;;;;;;;4986203;28;20442;-79
2022/05/27 01:00:52;;;;;;;2.17;1.97;;;;;;;;;;4970806;28;20846;-79
2022/05/27 01:03:20;;;;;;;3.57;1.93;;;;;;;;;;4973359;28;20486;-77
2022/05/27 01:05:46;;;;;;;2.30;1.97;;;;;;;;;;4966492;28;20811;-79
2022/05/27 01:08:15;;;;;;;2.47;2.27;;;;;;;;;;4958821;28;20664;-79
2022/05/27 01:10:46;;;;;;;2.30;2.10;;;;;;;;;;4953008;28;20431;-77
2022/05/27 01:13:20;;;;;;;2.90;2.20;;;;;;;;;;4969013;28;20442;-77
2022/05/27 01:15:53;;;;;;;2.67;2.17;;;;;;;;;;4970327;28;20460;-79
2022/05/27 01:21:15;;;;;;;2.80;2.10;;;;;;;;;;4973951;28;20449;-79
2022/05/27 01:23:52;;;;;;;2.47;2.10;;;;;;;;;;4962717;28;20505;-77
2022/05/27 01:26:45;;;;;;;3.97;2.00;;;;;;;;;;4973914;28;20442;-77
2022/05/27 01:29:26;;;;;;;2.20;2.00;;;;;;;;;;4975352;28;20442;-79
2022/05/27 01:31:57;;;;;;;2.23;2.00;;;;;;;;;;4932418;28;20854;-77
2022/05/27 01:34:25;;;;;;;2.73;2.03;;;;;;;;;;4991175;28;20450;-77
2022/05/27 01:36:54;;;;;;;2.57;2.07;;;;;;;;;;4973409;28;20485;-77
2022/05/27 01:39:25;;;;;;;2.43;1.97;;;;;;;;;;4975998;28;20954;-77
2022/05/27 01:41:57;;;;;;;2.27;2.03;;;;;;;;;;4967936;28;20435;-77
2022/05/27 01:44:27;;;;;;;2.03;1.80;;;;;;;;;;4960700;28;20826;-77
2022/05/27 01:46:55;;;;;;;3.07;1.80;;;;;;;;;;4988983;28;20454;-77
2022/05/27 01:49:29;;;;;;;2.30;2.03;;;;;;;;;;4975264;28;20532;-77
2022/05/27 01:51:59;;;;;;;3.63;2.10;;;;;;;;;;4975954;28;20470;-77
2022/05/27 01:54:30;;;;;;;1.77;1.67;;;;;;;;;;4973223;28;21009;-77
2022/05/27 01:56:59;;;;;;;2.70;2.10;;;;;;;;;;4957360;28;20446;-77
2022/05/27 01:59:28;;;;;;;2.23;1.67;;;;;;;;;;4956969;28;20482;-79
2022/05/27 02:01:58;;;;;;;2.87;2.00;;;;;;;;;;4958013;28;20438;-77
2022/05/27 02:04:27;;;;;;;2.80;2.10;;;;;;;;;;4974123;28;20478;-77
2022/05/27 02:06:57;;;;;;;2.27;1.97;;;;;;;;;;4955606;28;20462;-79
2022/05/27 02:09:27;;;;;;;5.30;3.27;;;;;;;;;;4958281;28;20532;-79
2022/05/27 02:11:56;;;;;;;1.80;1.70;;;;;;;;;;4957844;28;20445;-79
2022/05/27 02:14:25;;;;;;;2.70;2.20;;;;;;;;;;4974078;28;20450;-77
2022/05/27 02:16:56;;;;;;;3.10;2.10;;;;;;;;;;4975373;28;20463;-79
2022/05/27 02:19:28;;;;;;;2.93;2.10;;;;;;;;;;4975079;28;20434;-79
2022/05/27 02:21:55;;;;;;;2.20;2.00;;;;;;;;;;4974562;28;20439;-79
2022/05/27 02:24:23;;;;;;;2.27;1.93;;;;;;;;;;4972793;28;20535;-79
2022/05/27 02:26:52;;;;;;;2.50;2.10;;;;;;;;;;4969474;28;20494;-79
2022/05/27 02:29:21;;;;;;;3.20;2.10;;;;;;;;;;4971354;28;20446;-79
2022/05/27 02:31:50;;;;;;;2.53;2.23;;;;;;;;;;4976161;28;20462;-79
2022/05/27 02:37:07;;;;;;;2.73;2.47;;;;;;;;;;4976787;28;20419;-79
2022/05/27 02:39:35;;;;;;;2.53;2.30;;;;;;;;;;4957334;28;20446;-79
2022/05/27 02:42:03;;;;;;;3.27;1.90;;;;;;;;;;4974344;28;20518;-79
2022/05/27 02:44:35;;;;;;;2.60;2.33;;;;;;;;;;4969740;28;20467;-79
2022/05/27 02:47:04;;;;;;;2.40;2.20;;;;;;;;;;4974800;28;20914;-79
2022/05/27 02:49:35;;;;;;;2.73;2.40;;;;;;;;;;4974186;28;20456;-78
2022/05/27 02:52:07;;;;;;;4.37;2.10;;;;;;;;;;4972130;28;20569;-78
2022/05/27 02:54:42;;;;;;;2.30;1.90;;;;;;;;;;4950471;29;20451;-78
2022/05/27 02:57:14;;;;;;;3.33;2.33;;;;;;;;;;4926286;29;20454;-79
2022/05/27 02:59:41;;;;;;;2.00;1.70;;;;;;;;;;4955259;29;20531;-78
2022/05/27 03:02:08;;;;;;;2.20;2.00;;;;;;;;;;4954587;29;20786;-78
2022/05/27 03:04:35;;;;;;;3.53;2.77;;;;;;;;;;4952564;28;20480;-78
2022/05/27 03:07:06;;;;;;;2.80;2.30;;;;;;;;;;4968300;28;20877;-78
2022/05/27 03:09:38;;;;;;;2.50;2.30;;;;;;;;;;4974802;28;20497;-78
2022/05/27 03:12:12;;;;;;;2.80;2.10;;;;;;;;;;4945919;29;20455;-78
2022/05/27 03:15:01;;;;;;;4.63;3.43;;;;;;;;;;4954589;29;20479;-78
2022/05/27 03:17:33;;;;;;;3.00;2.27;;;;;;;;;;4954495;28;20458;-78
2022/05/27 03:20:07;;;;;;;2.60;2.37;;;;;;;;;;4972430;28;20454;-78
2022/05/27 03:22:41;;;;;;;2.10;1.90;;;;;;;;;;4952534;28;20456;-78
2022/05/27 03:25:13;;;;;;;2.40;2.03;;;;;;;;;;4954822;29;20467;-78
2022/05/27 03:27:42;;;;;;;2.47;2.03;;;;;;;;;;4954635;28;20459;-78
2022/05/27 03:30:10;;;;;;;2.80;2.50;;;;;;;;;;4938314;28;20479;-78
2022/05/27 03:32:40;;;;;;;2.83;2.27;;;;;;;;;;4954130;29;20794;-78
2022/05/27 03:35:08;;;;;;;2.30;2.10;;;;;;;;;;4936494;29;20514;-78
2022/05/27 03:37:37;;;;;;;4.60;2.77;;;;;;;;;;4950256;28;20458;-78
2022/05/27 03:40:05;;;;;;;2.27;1.80;;;;;;;;;;4951024;28;20469;-78
2022/05/27 03:42:32;;;;;;;3.93;2.20;;;;;;;;;;4952594;28;20491;-78
2022/05/27 03:45:02;;;;;;;3.07;2.40;;;;;;;;;;4950731;29;20484;-78
2022/05/27 03:47:29;;;;;;;2.90;2.40;;;;;;;;;;4944844;29;20637;-78
2022/05/27 03:49:55;;;;;;;2.80;2.33;;;;;;;;;;4936913;29;20459;-78
2022/05/27 03:52:24;;;;;;;5.30;2.87;;;;;;;;;;4971230;28;20477;-78
2022/05/27 03:54:50;;;;;;;2.57;2.30;;;;;;;;;;4972453;28;20486;-78
2022/05/27 03:57:17;;;;;;;2.90;2.33;;;;;;;;;;4971005;28;20438;-79
2022/05/27 03:59:43;;;;;;;2.60;2.10;;;;;;;;;;4972561;28;20476;-79
2022/05/27 04:02:11;;;;;;;3.17;2.70;;;;;;;;;;4971302;28;20482;-79
2022/05/27 04:04:37;;;;;;;4.90;2.60;;;;;;;;;;4972322;28;20489;-79
2022/05/27 04:07:04;;;;;;;3.63;2.40;;;;;;;;;;4971464;28;20778;-79
2022/05/27 04:09:32;;;;;;;3.63;2.53;;;;;;;;;;4952277;29;20763;-79
2022/05/27 04:11:59;;;;;;;2.60;2.40;;;;;;;;;;4969524;28;20443;-79
2022/05/27 04:14:25;;;;;;;2.90;2.20;;;;;;;;;;4971234;28;20449;-79
2022/05/27 04:17:27;;;;;;;3.03;2.60;;;;;;;;;;4970473;28;20851;-79
2022/05/27 04:19:40;;;;;;;3.10;2.47;;;;;;;;;;4971117;28;20861;-79
2022/05/27 04:22:06;;;;;;;4.33;2.10;;;;;;;;;;4973374;28;20525;-79
2022/05/27 04:24:33;;;;;;;2.70;2.50;;;;;;;;;;4973416;28;20656;-79
2022/05/27 04:27:00;;;;;;;3.13;2.83;;;;;;;;;;4970452;28;20878;-79
2022/05/27 04:29:26;;;;;;;3.27;2.23;;;;;;;;;;4979724;28;20549;-79
2022/05/27 04:31:53;;;;;;;3.00;2.70;;;;;;;;;;4980703;28;20466;-79
2022/05/27 04:34:19;;;;;;;4.70;2.50;;;;;;;;;;4971577;28;20549;-79
2022/05/27 04:36:47;;;;;;;3.63;2.30;;;;;;;;;;4969947;28;21000;-79
2022/05/27 04:39:14;;;;;;;2.30;2.10;;;;;;;;;;4963124;28;21329;-80
2022/05/27 04:41:40;;;;;;;3.87;2.70;;;;;;;;;;4972945;28;20443;-79
2022/05/27 04:44:08;;;;;;;4.70;2.27;;;;;;;;;;4972670;28;20937;-79
2022/05/27 04:46:34;;;;;;;3.67;2.80;;;;;;;;;;4972584;28;20439;-79
2022/05/27 04:49:01;;;;;;;3.80;2.40;;;;;;;;;;4970106;28;20498;-79
2022/05/27 04:51:27;;;;;;;3.63;2.57;;;;;;;;;;4971396;28;20480;-79
2022/05/27 04:53:55;;;;;;;3.53;3.17;;;;;;;;;;4955125;28;21001;-79
2022/05/27 04:56:25;;;;;;;2.23;2.03;;;;;;;;;;4961207;28;20540;-79
2022/05/27 04:58:52;;;;;;;2.80;2.40;;;;;;;;;;4958641;28;20443;-80
2022/05/27 05:01:18;;;;;;;2.77;2.40;;;;;;;;;;4959225;28;20446;-79
2022/05/27 05:03:45;;;;;;;2.77;2.57;;;;;;;;;;4976178;28;20553;-80
2022/05/27 05:06:12;;;;;;;2.43;2.23;;;;;;;;;;4975392;28;20455;-79
2022/05/27 05:08:39;;;;;;;2.77;2.50;;;;;;;;;;4975787;28;20835;-79
2022/05/27 05:11:07;;;;;;;3.73;2.50;;;;;;;;;;4955041;29;20506;-79
2022/05/27 05:13:34;;;;;;;2.70;2.50;;;;;;;;;;4957000;28;20447;-79
2022/05/27 05:16:01;;;;;;;3.03;2.70;;;;;;;;;;4956436;28;21047;-79
2022/05/27 05:18:28;;;;;;;3.80;2.33;;;;;;;;;;4975187;28;20459;-79
2022/05/27 05:20:55;;;;;;;3.00;2.47;;;;;;;;;;4959045;28;20441;-79
2022/05/27 05:23:21;;;;;;;2.53;2.03;;;;;;;;;;4958091;28;20447;-79
2022/05/27 05:25:48;;;;;;;2.97;2.67;;;;;;;;;;4945853;28;20427;-79
2022/05/27 05:28:16;;;;;;;2.53;2.33;;;;;;;;;;4962480;28;20540;-79
2022/05/27 05:30:42;;;;;;;2.27;2.07;;;;;;;;;;4974628;28;20450;-79
2022/05/27 05:33:08;;;;;;;2.63;2.43;;;;;;;;;;4972800;28;21292;-79
2022/05/27 05:35:35;;;;;;;2.50;2.30;;;;;;;;;;4954652;28;20535;-79
2022/05/27 05:38:02;;;;;;;3.10;2.33;;;;;;;;;;4955542;28;20446;-79
2022/05/27 05:40:28;;;;;;;3.27;2.70;;;;;;;;;;4973971;28;20477;-79
2022/05/27 05:42:55;;;;;;;3.23;2.50;;;;;;;;;;4974756;28;20454;-79
2022/05/27 05:45:23;;;;;;;4.90;2.67;;;;;;;;;;4956646;28;20560;-79
2022/05/27 05:47:51;;;;;;;3.67;2.97;;;;;;;;;;4957528;28;20462;-79
2022/05/27 05:50:18;;;;;;;3.53;2.37;;;;;;;;;;4941719;28;20454;-79
2022/05/27 05:52:47;;;;;;;3.47;2.50;;;;;;;;;;4964344;28;20443;-79
2022/05/27 05:55:38;;;;;;;2.30;2.10;;;;;;;;;;4939288;29;20451;-79
2022/05/27 05:58:05;;;;;;;4.67;2.70;;;;;;;;;;4941267;29;20513;-80
2022/05/27 06:00:33;;;;;;;6.03;2.50;;;;;;;;;;4933077;28;20443;-79
2022/05/27 06:02:59;;;;;;;3.17;2.87;;;;;;;;;;4937658;28;20554;-79
2022/05/27 06:05:26;;;;;;;3.83;2.50;;;;;;;;;;4954288;28;20489;-79
2022/05/27 06:07:52;;;;;;;2.53;2.10;;;;;;;;;;4955867;28;20457;-79
2022/05/27 06:10:20;;;;;;;4.20;2.47;;;;;;;;;;4957454;28;20446;-79
2022/05/27 06:12:46;;;;;;;6.60;2.70;;;;;;;;;;4939729;29;20463;-80
2022/05/27 06:15:14;;;;;;;2.50;2.30;;;;;;;;;;4950370;29;20833;-79
2022/05/27 06:17:42;;;;;;;4.20;2.53;;;;;;;;;;4919460;29;20441;-79
2022/05/27 06:20:10;;;;;;;2.60;2.40;;;;;;;;;;4932507;29;20867;-79
2022/05/27 06:22:37;;;;;;;3.40;2.63;;;;;;;;;;4957055;29;20832;-79
2022/05/27 06:25:03;;;;;;;3.10;2.10;;;;;;;;;;4936541;29;20475;-79
2022/05/27 06:27:30;;;;;;;3.27;2.40;;;;;;;;;;4962221;29;21001;-80
2022/05/27 06:35:28;;;;;;;6.37;3.10;;;;;;;;;;4936808;28;20439;-79
2022/05/27 06:37:55;;;;;;;3.20;2.90;;;;;;;;;;4939399;29;20454;-79
2022/05/27 06:40:21;;;;;;;3.50;2.87;;;;;;;;;;4937445;28;20439;-79
2022/05/27 06:42:48;;;;;;;4.70;3.10;;;;;;;;;;4951544;29;20452;-79
2022/05/27 06:45:14;;;;;;;2.90;2.60;;;;;;;;;;4945253;29;20471;-79
2022/05/27 06:47:42;;;;;;;4.00;3.00;;;;;;;;;;4954124;29;20447;-79
2022/05/27 06:50:09;;;;;;;3.97;2.80;;;;;;;;;;4955502;28;20547;-79
2022/05/27 06:52:36;;;;;;;4.20;3.00;;;;;;;;;;4973332;28;20809;-79
2022/05/27 06:55:03;;;;;;;2.93;2.70;;;;;;;;;;4951580;28;20442;-79
2022/05/27 06:57:30;;;;;;;4.77;2.87;;;;;;;;;;4940161;28;20624;-80
2022/05/27 06:59:56;;;;;;;5.50;2.97;;;;;;;;;;4938512;28;20546;-80
2022/05/27 07:02:23;;;;;;;3.63;3.30;;;;;;;;;;4956100;28;20474;-79
2022/05/27 07:04:51;;;;;;;5.37;2.80;;;;;;;;;;4973686;28;20529;-80
2022/05/27 07:07:17;;;;;;;3.23;2.83;;;;;;;;;;4973908;28;20526;-79
2022/05/27 07:09:44;;;;;;;4.00;3.23;;;;;;;;;;4955464;28;20502;-79
2022/05/27 07:12:12;;;;;;;4.50;2.80;;;;;;;;;;4955014;28;20641;-79
2022/05/27 07:14:39;;;;;;;2.70;2.50;;;;;;;;;;4955185;28;20451;-79
2022/05/27 07:17:06;;;;;;;3.07;2.77;;;;;;;;;;4955660;28;20453;-80
2022/05/27 07:19:32;;;;;;;3.83;3.10;;;;;;;;;;4953970;28;20486;-80
2022/05/27 07:22:00;;;;;;;3.83;3.43;;;;;;;;;;4970590;28;20461;-79
2022/05/27 07:24:28;;;;;;;4.30;3.80;;;;;;;;;;4955194;28;20474;-80
2022/05/27 07:26:54;;;;;;;3.30;3.00;;;;;;;;;;4973053;28;20530;-79
2022/05/27 07:29:21;;;;;;;3.50;3.20;;;;;;;;;;4972878;28;20462;-79
2022/05/27 07:31:47;;;;;;;3.30;2.70;;;;;;;;;;4972781;28;20438;-79
2022/05/27 07:34:14;;;;;;;3.77;3.30;;;;;;;;;;4972888;28;20509;-79
2022/05/27 07:36:40;;;;;;;3.30;3.00;;;;;;;;;;4955274;28;20554;-80
2022/05/27 07:39:08;;;;;;;4.20;3.40;;;;;;;;;;4948604;28;20466;-80
2022/05/27 07:41:35;;;;;;;3.70;2.80;;;;;;;;;;4971962;28;20438;-79
2022/05/27 07:44:03;;;;;;;3.50;2.63;;;;;;;;;;4958786;28;20474;-79
2022/05/27 07:46:31;;;;;;;3.97;2.70;;;;;;;;;;4966373;28;20472;-79
2022/05/27 07:48:58;;;;;;;4.20;2.80;;;;;;;;;;4973597;28;20458;-80
2022/05/27 07:51:25;;;;;;;3.40;2.87;;;;;;;;;;4970434;28;20505;-79
2022/05/27 07:53:51;;;;;;;3.43;3.07;;;;;;;;;;4965117;28;20466;-81
2022/05/27 07:56:19;;;;;;;3.53;3.23;;;;;;;;;;4970380;28;20524;-80
2022/05/27 07:58:46;;;;;;;3.70;3.10;;;;;;;;;;4972891;28;20852;-82
2022/05/27 08:01:13;;;;;;;4.40;2.73;;;;;;;;;;4972339;28;20438;-81
2022/05/27 08:03:41;;;;;;;3.60;3.10;;;;;;;;;;4953307;28;20462;-80
2022/05/27 08:06:08;;;;;;;5.57;3.70;;;;;;;;;;4936190;28;20482;-80
2022/05/27 08:08:35;;;;;;;3.47;3.17;;;;;;;;;;4951544;28;20687;-80
2022/05/27 08:11:02;;;;;;;3.00;2.70;;;;;;;;;;4968880;28;20458;-80
2022/05/27 08:13:30;;;;;;;3.70;2.90;;;;;;;;;;4951845;28;20480;-80
2022/05/27 08:18:43;;;;;;;4.20;2.83;;;;;;;;;;4967325;28;20502;-80
2022/05/27 08:21:09;;;;;;;2.90;2.60;;;;;;;;;;4952619;28;20945;-80
2022/05/27 08:23:35;;;;;;;3.00;2.43;;;;;;;;;;4954804;28;20454;-78
2022/05/27 08:26:02;;;;;;;5.13;3.10;;;;;;;;;;4950856;28;20961;-79
2022/05/27 08:28:30;;;;;;;3.70;3.00;;;;;;;;;;4968555;28;20455;-78
2022/05/27 08:30:58;;;;;;;4.13;2.73;;;;;;;;;;4948829;28;20489;-80
2022/05/27 08:33:25;;;;;;;3.53;3.13;;;;;;;;;;4951198;28;20654;-79
2022/05/27 08:38:36;;;;;;;3.57;3.10;;;;;;;;;;4970586;28;20442;-79
2022/05/27 08:41:11;;;;;;;4.63;2.50;;;;;;;;;;4954032;28;21003;-78
2022/05/27 08:43:49;;;;;;;2.70;2.50;;;;;;;;;;4938376;28;20477;-79
2022/05/27 08:46:20;;;;;;;3.10;2.70;;;;;;;;;;4969067;28;20466;-79
2022/05/27 08:48:48;;;;;;;3.60;2.87;;;;;;;;;;4953985;28;20459;-80
2022/05/27 08:51:18;;;;;;;3.30;2.47;;;;;;;;;;4970271;28;20470;-80
2022/05/27 08:53:47;;;;;;;3.57;2.80;;;;;;;;;;4938508;28;20450;-80
2022/05/27 09:01:55;;;;;;;3.00;2.70;;;;;;;;;;4953159;28;20602;-80
2022/05/27 09:04:23;;;;;;;2.90;2.60;;;;;;;;;;4971267;28;21052;-80
2022/05/27 09:06:50;;;;;;;2.63;2.40;;;;;;;;;;4954768;28;20474;-80
2022/05/27 09:09:19;;;;;;;4.90;2.57;;;;;;;;;;4954365;28;20454;-80
2022/05/27 09:11:50;;;;;;;3.63;2.70;;;;;;;;;;4954270;28;20461;-80
2022/05/27 09:14:21;;;;;;;4.40;3.00;;;;;;;;;;4954066;28;20453;-81
2022/05/27 09:16:52;;;;;;;2.63;2.20;;;;;;;;;;4954617;28;20449;-80
2022/05/27 09:19:24;;;;;;;3.57;2.57;;;;;;;;;;4955792;28;20522;-79
2022/05/27 09:21:55;;;;;;;3.00;2.70;;;;;;;;;;4950951;29;20451;-79
2022/05/27 09:24:40;;;;;;;3.40;3.10;;;;;;;;;;4951024;28;20477;-79
2022/05/27 09:27:08;;;;;;;3.10;2.80;;;;;;;;;;4970908;28;20938;-80
2022/05/27 09:29:45;;;;;;;2.70;2.50;;;;;;;;;;4965677;28;20462;-80
2022/05/27 09:32:17;;;;;;;3.67;2.50;;;;;;;;;;4956183;28;20434;-79
2022/05/27 09:34:44;;;;;;;2.83;2.47;;;;;;;;;;4953525;28;20458;-79
2022/05/27 09:37:14;;;;;;;3.30;2.20;;;;;;;;;;4971320;28;20984;-79
2022/05/27 09:39:40;;;;;;;2.97;2.27;;;;;;;;;;4971528;28;20471;-80
2022/05/27 09:42:11;;;;;;;2.80;2.47;;;;;;;;;;4954950;28;20478;-78
2022/05/27 09:44:43;;;;;;;2.53;2.30;;;;;;;;;;4957833;28;20450;-79
2022/05/27 09:47:10;;;;;;;3.67;2.80;;;;;;;;;;4942015;29;20554;-80
2022/05/27 09:49:37;;;;;;;2.57;2.37;;;;;;;;;;4941725;28;20546;-80
2022/05/27 09:52:05;;;;;;;3.17;2.23;;;;;;;;;;4985804;28;20509;-79
2022/05/27 09:54:38;;;;;;;2.60;2.30;;;;;;;;;;4983400;28;20454;-80
2022/05/27 09:57:22;;;;;;;3.57;2.20;;;;;;;;;;4972748;28;20450;-80
2022/05/27 09:59:54;;;;;;;4.43;2.63;;;;;;;;;;4972137;28;20526;-79
2022/05/27 10:02:21;;;;;;;2.40;2.20;;;;;;;;;;4932189;28;20447;-80
2022/05/27 10:04:58;;;;;;;3.27;2.53;;;;;;;;;;4948791;28;20453;-79
2022/05/27 10:07:26;;;;;;;3.40;2.37;;;;;;;;;;4946135;28;20581;-80
2022/05/27 10:09:53;;;;;;;2.77;2.20;;;;;;;;;;4947563;28;20456;-79
2022/05/27 10:12:28;;;;;;;3.50;2.60;;;;;;;;;;4965008;28;20446;-80
2022/05/27 10:14:55;;;;;;;2.50;2.30;;;;;;;;;;4953197;28;20446;-80
2022/05/27 10:17:28;;;;;;;2.33;2.10;;;;;;;;;;4944910;28;20651;-79
2022/05/27 10:20:12;;;;;;;2.57;2.30;;;;;;;;;;4941141;28;20454;-79
2022/05/27 10:22:39;;;;;;;3.83;2.57;;;;;;;;;;4958157;28;20435;-79
2022/05/27 10:25:07;;;;;;;2.60;2.40;;;;;;;;;;4973357;28;20513;-79
2022/05/27 10:27:35;;;;;;;2.80;2.30;;;;;;;;;;4957228;28;20450;-79
2022/05/27 10:30:06;;;;;;;2.40;2.07;;;;;;;;;;4958003;28;20488;-79
2022/05/27 10:32:34;;;;;;;3.70;2.30;;;;;;;;;;4975613;28;20818;-79
2022/05/27 10:35:02;;;;;;;2.73;2.17;;;;;;;;;;4973553;28;20454;-79
2022/05/27 10:37:38;;;;;;;2.00;1.90;;;;;;;;;;4973685;28;20457;-79
2022/05/27 10:40:10;;;;;;;2.83;2.30;;;;;;;;;;4974018;28;20482;-79
2022/05/27 10:42:43;;;;;;;2.40;2.20;;;;;;;;;;4952904;28;21040;-79
2022/05/27 10:45:16;;;;;;;2.20;2.00;;;;;;;;;;4956659;28;20446;-79
2022/05/27 10:47:54;;;;;;;2.40;2.20;;;;;;;;;;4973334;28;20961;-79
2022/05/27 10:50:26;;;;;;;2.90;2.30;;;;;;;;;;4957123;28;20477;-79
2022/05/27 10:53:13;;;;;;;2.53;2.27;;;;;;;;;;4956358;28;20490;-79
2022/05/27 10:55:49;;;;;;;2.20;2.00;;;;;;;;;;4937679;28;20423;-80
2022/05/27 11:04:17;;;;;;;2.83;2.53;;;;;;;;;;4973576;28;20501;-79
2022/05/27 11:06:57;;;;;;;4.10;2.40;;;;;;;;;;4939898;28;20904;-79
2022/05/27 11:09:29;;;;;;;2.40;2.20;;;;;;;;;;4968304;28;20453;-79
2022/05/27 11:11:58;;;;;;;2.50;2.20;;;;;;;;;;4956110;28;20454;-79
2022/05/27 11:17:22;;;;;;;2.53;1.83;;;;;;;;;;4939975;28;20442;-79
2022/05/27 11:19:54;;;;;;;2.33;1.77;;;;;;;;;;4939496;28;20559;-79
2022/05/27 11:22:26;;;;;;;3.17;2.00;;;;;;;;;;4955931;28;20946;-79
2022/05/27 11:25:04;;;;;;;4.10;2.03;;;;;;;;;;4972123;28;20454;-79
2022/05/27 11:27:38;;;;;;;3.40;1.70;;;;;;;;;;4949949;29;20489;-79
2022/05/27 11:30:08;;;;;;;2.73;2.23;;;;;;;;;;4941240;28;20537;-79
2022/05/27 11:32:45;;;;;;;1.83;1.73;;;;;;;;;;4973106;28;20553;-79
2022/05/27 11:35:15;;;;;;;2.30;1.80;;;;;;;;;;4972999;28;20731;-79
2022/05/27 11:37:53;;;;;;;2.47;2.20;;;;;;;;;;4955479;28;20454;-79
2022/05/27 11:40:31;;;;;;;6.20;2.27;;;;;;;;;;4951923;29;20440;-79
2022/05/27 11:43:16;;;;;;;3.53;2.20;;;;;;;;;;4954130;28;20820;-79
2022/05/27 11:45:45;;;;;;;1.87;1.77;;;;;;;;;;4957099;28;20498;-79
2022/05/27 11:48:16;;;;;;;3.00;2.80;;;;;;;;;;4976726;28;20454;-79
2022/05/27 11:50:58;;;;;;;1.83;1.73;;;;;;;;;;4981157;28;20494;-78
2022/05/27 11:53:32;;;;;;;1.80;1.60;;;;;;;;;;4970888;28;20478;-79
2022/05/27 11:56:06;;;;;;;2.40;2.20;;;;;;;;;;4969234;28;20446;-79
2022/05/27 11:58:39;;;;;;;2.50;2.30;;;;;;;;;;4939373;29;20890;-79
2022/05/27 12:01:07;;;;;;;3.10;2.23;;;;;;;;;;4965439;28;20462;-79
2022/05/27 12:03:38;;;;;;;3.80;1.70;;;;;;;;;;4971943;28;20533;-79
2022/05/27 12:06:07;;;;;;;2.30;2.10;;;;;;;;;;4972053;28;20877;-79
2022/05/27 12:08:35;;;;;;;7.30;2.27;;;;;;;;;;4971594;28;20418;-79
2022/05/27 12:11:04;;;;;;;2.00;1.90;;;;;;;;;;4972278;28;20451;-79
2022/05/27 12:13:33;;;;;;;3.53;2.10;;;;;;;;;;4965203;28;20535;-79
2022/05/27 12:16:02;;;;;;;3.07;2.07;;;;;;;;;;4981904;28;20458;-79
2022/05/27 12:18:32;;;;;;;2.07;1.87;;;;;;;;;;4987096;28;20517;-80
2022/05/27 12:21:01;;;;;;;1.90;1.80;;;;;;;;;;4971540;28;20484;-79
2022/05/27 12:23:28;;;;;;;2.50;2.07;;;;;;;;;;4970283;28;20442;-79
2022/05/27 12:25:57;;;;;;;3.97;1.53;;;;;;;;;;4971688;28;20470;-79
2022/05/27 12:28:26;;;;;;;1.90;1.80;;;;;;;;;;4957752;28;20514;-79
2022/05/27 12:30:54;;;;;;;2.40;2.00;;;;;;;;;;4968921;28;20442;-79
2022/05/27 12:33:24;;;;;;;2.10;1.90;;;;;;;;;;4953607;28;20451;-79
2022/05/27 12:35:54;;;;;;;2.00;1.80;;;;;;;;;;4986785;28;20434;-79
2022/05/27 12:38:25;;;;;;;2.80;2.10;;;;;;;;;;4971220;28;20442;-79
2022/05/27 12:40:56;;;;;;;2.60;2.40;;;;;;;;;;4950012;28;20550;-79
2022/05/27 12:43:24;;;;;;;1.80;1.70;;;;;;;;;;4953923;28;20450;-79
2022/05/27 12:46:14;;;;;;;4.00;2.27;;;;;;;;;;4969754;28;20477;-79
2022/05/27 12:48:42;;;;;;;2.03;1.80;;;;;;;;;;4954413;28;20453;-79
2022/05/27 12:51:28;;;;;;;2.80;2.27;;;;;;;;;;4970162;28;20540;-79
2022/05/27 12:53:57;;;;;;;2.43;2.23;;;;;;;;;;4954266;28;20796;-79
2022/05/27 13:02:49;;;;;;;2.67;2.20;;;;;;;;;;4954443;28;20849;-79
2022/05/27 13:05:17;;;;;;;2.40;1.93;;;;;;;;;;4954783;28;20446;-79
2022/05/27 13:07:45;;;;;;;3.47;1.87;;;;;;;;;;4953803;28;20981;-79
2022/05/27 13:10:33;;;;;;;2.20;2.00;;;;;;;;;;4954927;28;20454;-80
2022/05/27 13:13:05;;;;;;;2.60;2.40;;;;;;;;;;4967843;28;20454;-78
2022/05/27 13:15:34;;;;;;;2.67;2.00;;;;;;;;;;4954317;28;20806;-78
2022/05/27 13:18:09;;;;;;;2.57;2.37;;;;;;;;;;4974491;28;20453;-78
2022/05/27 13:20:52;;;;;;;2.40;2.20;;;;;;;;;;4975460;28;20446;-78
2022/05/27 13:23:19;;;;;;;2.20;2.00;;;;;;;;;;4974087;28;20489;-78
2022/05/27 13:25:49;;;;;;;2.00;1.80;;;;;;;;;;4974462;28;20454;-78
2022/05/27 13:28:28;;;;;;;2.53;2.33;;;;;;;;;;4956557;28;20453;-78
2022/05/27 13:31:04;;;;;;;4.20;2.40;;;;;;;;;;4961570;28;20443;-78
2022/05/27 13:33:32;;;;;;;2.27;2.10;;;;;;;;;;4944127;28;20448;-78
2022/05/27 13:36:01;;;;;;;2.20;2.00;;;;;;;;;;4957129;28;20536;-78
2022/05/27 13:38:32;;;;;;;2.27;2.07;;;;;;;;;;4970777;28;20845;-78
2022/05/27 13:40:59;;;;;;;2.47;2.27;;;;;;;;;;4958068;28;20446;-78
2022/05/27 13:43:32;;;;;;;2.87;2.20;;;;;;;;;;4941127;28;20959;-78
2022/05/27 13:46:08;;;;;;;2.20;1.87;;;;;;;;;;4975125;28;20442;-78
2022/05/27 13:48:36;;;;;;;2.30;1.77;;;;;;;;;;4954699;28;20798;-78
2022/05/27 13:51:08;;;;;;;2.10;1.90;;;;;;;;;;4951275;28;20515;-78
2022/05/27 13:53:35;;;;;;;2.57;2.13;;;;;;;;;;4968929;28;20482;-78
2022/05/27 13:56:08;;;;;;;1.83;1.70;;;;;;;;;;4969840;28;20458;-78
2022/05/27 13:58:37;;;;;;;2.67;1.70;;;;;;;;;;4973926;28;20438;-78
2022/05/27 14:01:05;;;;;;;2.10;1.90;;;;;;;;;;4968830;28;20465;-78
2022/05/27 14:03:38;;;;;;;2.40;2.20;;;;;;;;;;4967872;28;20529;-78
2022/05/27 14:06:04;;;;;;;2.03;1.83;;;;;;;;;;4971752;28;20466;-78
2022/05/27 14:08:35;;;;;;;2.03;1.83;;;;;;;;;;4955639;28;20474;-78
2022/05/27 14:11:06;;;;;;;2.10;1.57;;;;;;;;;;4973632;28;20505;-78
2022/05/27 14:13:33;;;;;;;1.43;1.33;;;;;;;;;;4971346;28;20478;-78
2022/05/27 14:16:01;;;;;;;1.93;1.83;;;;;;;;;;4957657;28;20531;-78
2022/05/27 14:18:30;;;;;;;2.47;1.90;;;;;;;;;;4950911;28;20447;-78
2022/05/27 14:23:43;;;;;;;2.67;1.87;;;;;;;;;;4975034;28;20770;-78
2022/05/27 14:26:10;;;;;;;1.90;1.60;;;;;;;;;;4973662;28;20446;-78
2022/05/27 14:28:38;;;;;;;1.73;1.60;;;;;;;;;;4973793;28;20937;-78
2022/05/27 14:31:11;;;;;;;1.97;1.77;;;;;;;;;;4973552;28;20461;-78
2022/05/27 14:33:40;;;;;;;5.00;2.10;;;;;;;;;;4972891;28;20445;-78
2022/05/27 14:36:08;;;;;;;2.33;2.10;;;;;;;;;;4973344;28;20533;-78
2022/05/27 14:38:36;;;;;;;1.73;1.57;;;;;;;;;;4973405;28;20431;-78
2022/05/27 14:41:03;;;;;;;2.23;2.03;;;;;;;;;;4972020;28;20557;-78
2022/05/27 14:43:35;;;;;;;2.83;2.00;;;;;;;;;;4975259;28;20902;-78
2022/05/27 14:46:12;;;;;;;2.07;1.87;;;;;;;;;;4974239;28;20481;-78
2022/05/27 14:48:40;;;;;;;1.70;1.50;;;;;;;;;;4972663;28;20509;-78
2022/05/27 14:51:20;;;;;;;2.93;1.60;;;;;;;;;;4973487;28;20474;-77
2022/05/27 14:53:47;;;;;;;3.40;1.87;;;;;;;;;;4967230;28;20529;-78
2022/05/27 14:56:19;;;;;;;1.90;1.80;;;;;;;;;;4971866;28;20450;-78
2022/05/27 14:58:45;;;;;;;1.70;1.43;;;;;;;;;;4971914;28;20447;-78
2022/05/27 15:01:20;;;;;;;2.40;1.83;;;;;;;;;;4974372;28;20448;-79
2022/05/27 15:04:06;;;;;;;1.90;1.60;;;;;;;;;;4953533;28;20450;-79
2022/05/27 15:06:37;;;;;;;2.73;1.60;;;;;;;;;;4973439;28;20446;-78
2022/05/27 15:09:08;;;;;;;1.90;1.70;;;;;;;;;;4971366;28;20997;-78
2022/05/27 15:11:35;;;;;;;2.37;1.77;;;;;;;;;;4941028;29;20491;-79
2022/05/27 15:14:19;;;;;;;2.47;1.83;;;;;;;;;;4953168;28;20465;-79
2022/05/27 15:16:53;;;;;;;1.60;1.47;;;;;;;;;;4955698;28;20921;-78
2022/05/27 15:19:20;;;;;;;2.23;1.70;;;;;;;;;;4972386;28;20534;-79
2022/05/27 15:21:47;;;;;;;1.80;1.10;;;;;;;;;;4952936;28;20510;-79
2022/05/27 15:24:19;;;;;;;1.40;1.10;;;;;;;;;;4946166;28;20905;-78
2022/05/27 15:35:07;;;;;;;3.17;1.10;;;;;;;;;;4972545;28;20443;-79
2022/05/27 15:37:34;;;;;;;4.67;1.60;;;;;;;;;;4955250;28;20439;-78
2022/05/27 15:40:01;;;;;;;1.70;1.17;;;;;;;;;;4955013;28;20493;-79
2022/05/27 15:42:28;;;;;;;2.20;1.17;;;;;;;;;;4958916;28;20870;-79
2022/05/27 15:44:55;;;;;;;1.37;1.17;;;;;;;;;;4954352;28;20481;-79
2022/05/27 15:47:24;;;;;;;1.63;1.13;;;;;;;;;;4970617;28;20485;-78